Time;durP1;ratioP1;P1;durP2;ratioP2;P2;SDS_P1;SDS_P2;PMS_P1;PMS_P2;Temp;Humidity;BMP_temperature;BMP_pressure;BME280_temperature;BME280_humidity;BME280_pressure;Samples;Min_cycle;Max_cycle;Signal;HPM_P1;HPM_P2
2021/11/30 00:01:03;;;;;;;;;;;0.30;99.90;;;;;;5109418;28;19904;-78
2021/11/30 00:03:28;;;;;;;;;;;0.40;99.90;;;;;;5109529;28;20360;-77
2021/11/30 00:05:54;;;;;;;;;;;0.50;99.90;;;;;;5111391;28;19903;-77
2021/11/30 00:08:20;;;;;;;;;;;0.60;99.90;;;;;;5109145;28;19910;-78
2021/11/30 00:10:46;;;;;;;;;;;0.70;99.90;;;;;;5110682;28;20151;-78
2021/11/30 00:13:16;;;;;;;;;;;0.70;99.90;;;;;;5112298;28;19912;-78
2021/11/30 00:15:42;;;;;;;;;;;0.70;99.90;;;;;;5113438;28;19912;-79
2021/11/30 00:18:08;;;;;;;;;;;0.80;99.90;;;;;;5115374;28;19930;-78
2021/11/30 00:20:35;;;;;;;;;;;0.80;99.90;;;;;;5113320;28;19916;-78
2021/11/30 00:23:00;;;;;;;;;;;0.70;99.90;;;;;;5114730;28;19904;-77
2021/11/30 00:25:26;;;;;;;;;;;0.60;99.90;;;;;;5113572;28;20405;-79
2021/11/30 00:27:52;;;;;;;;;;;0.50;99.90;;;;;;5113463;28;19916;-77
2021/11/30 00:30:17;;;;;;;;;;;0.50;99.90;;;;;;5113560;28;19998;-77
2021/11/30 00:32:43;;;;;;;;;;;0.40;99.90;;;;;;5115996;28;19938;-78
2021/11/30 00:35:09;;;;;;;;;;;0.50;99.90;;;;;;5115520;28;19907;-77
2021/11/30 00:37:34;;;;;;;;;;;0.30;99.90;;;;;;5120911;27;20358;-77
2021/11/30 00:40:00;;;;;;;;;;;0.30;99.90;;;;;;5133557;27;20367;-77
2021/11/30 00:42:26;;;;;;;;;;;0.30;99.90;;;;;;5134427;27;19964;-77
2021/11/30 00:44:53;;;;;;;;;;;0.30;99.90;;;;;;5132986;27;19903;-77
2021/11/30 00:47:26;;;;;;;;;;;0.30;99.90;;;;;;5133593;27;19915;-77
2021/11/30 00:49:51;;;;;;;;;;;0.30;99.90;;;;;;5134612;27;19907;-77
2021/11/30 00:52:17;;;;;;;;;;;0.30;99.90;;;;;;5133094;27;20371;-77
2021/11/30 00:54:43;;;;;;;;;;;0.30;99.90;;;;;;5132897;27;19960;-78
2021/11/30 00:57:09;;;;;;;;;;;0.40;99.90;;;;;;5134539;27;19903;-77
2021/11/30 00:59:34;;;;;;;;;;;0.50;99.90;;;;;;5132845;27;19938;-78
2021/11/30 01:02:00;;;;;;;;;;;0.50;99.90;;;;;;5133502;27;20438;-77
2021/11/30 01:04:26;;;;;;;;;;;0.60;99.90;;;;;;5132902;27;19988;-78
2021/11/30 01:06:52;;;;;;;;;;;0.60;99.90;;;;;;5132225;27;19911;-77
2021/11/30 01:09:18;;;;;;;;;;;0.60;99.90;;;;;;5132753;27;19903;-77
2021/11/30 01:11:44;;;;;;;;;;;0.60;99.90;;;;;;5133661;27;20368;-76
2021/11/30 01:14:09;;;;;;;;;;;0.70;99.90;;;;;;5132798;27;19907;-77
2021/11/30 01:16:35;;;;;;;;;;;0.70;99.90;;;;;;5133118;27;19914;-78
2021/11/30 01:19:01;;;;;;;;;;;0.70;99.90;;;;;;5140424;27;19907;-78
2021/11/30 01:21:27;;;;;;;;;;;0.80;99.90;;;;;;5130582;27;19909;-78
2021/11/30 01:23:52;;;;;;;;;;;0.80;99.90;;;;;;5130019;27;19911;-77
2021/11/30 01:26:18;;;;;;;;;;;0.90;99.90;;;;;;5132205;27;20440;-78
2021/11/30 01:28:43;;;;;;;;;;;0.90;99.90;;;;;;5130737;27;19982;-77
2021/11/30 01:31:09;;;;;;;;;;;1.00;99.90;;;;;;5132252;27;19910;-78
2021/11/30 01:33:35;;;;;;;;;;;1.00;99.90;;;;;;5131551;27;19903;-78
2021/11/30 01:36:02;;;;;;;;;;;1.00;99.90;;;;;;5130566;27;19956;-77
2021/11/30 01:38:30;;;;;;;;;;;1.00;99.90;;;;;;5130452;27;19980;-78
2021/11/30 01:40:57;;;;;;;;;;;0.90;99.90;;;;;;5131564;27;20307;-78
2021/11/30 01:43:25;;;;;;;;;;;0.90;99.90;;;;;;5132795;27;19907;-77
2021/11/30 01:46:10;;;;;;;;;;;0.80;99.90;;;;;;5130733;27;19960;-78
2021/11/30 01:51:21;;;;;;;;;;;0.80;99.90;;;;;;5133221;27;19963;-78
2021/11/30 01:53:47;;;;;;;;;;;0.80;99.90;;;;;;5132048;27;20371;-78
2021/11/30 01:56:13;;;;;;;;;;;0.70;99.90;;;;;;5131756;27;19960;-78
2021/11/30 01:58:38;;;;;;;;;;;0.70;99.90;;;;;;5130932;27;19904;-77
2021/11/30 02:01:06;;;;;;;;;;;0.80;99.90;;;;;;5131184;27;20007;-77
2021/11/30 02:03:32;;;;;;;;;;;0.70;99.90;;;;;;5131291;27;19907;-77
2021/11/30 02:05:57;;;;;;;;;;;0.60;99.90;;;;;;5122537;27;19914;-77
2021/11/30 02:08:23;;;;;;;;;;;0.60;99.90;;;;;;5111008;28;20295;-78
2021/11/30 02:10:49;;;;;;;;;;;0.50;99.90;;;;;;5110600;28;20360;-78
2021/11/30 02:13:15;;;;;;;;;;;0.50;99.90;;;;;;5111836;28;19911;-77
2021/11/30 02:15:46;;;;;;;;;;;0.40;99.90;;;;;;5110965;28;19908;-78
2021/11/30 02:18:13;;;;;;;;;;;0.40;99.90;;;;;;5110875;28;19950;-77
2021/11/30 02:20:41;;;;;;;;;;;0.30;99.90;;;;;;5111297;28;19907;-76
2021/11/30 02:23:14;;;;;;;;;;;0.20;99.90;;;;;;5111850;28;19949;-76
2021/11/30 02:25:40;;;;;;;;;;;0.20;99.90;;;;;;5111030;28;19926;-76
2021/11/30 02:28:06;;;;;;;;;;;0.20;99.90;;;;;;5111716;28;20423;-77
2021/11/30 02:30:31;;;;;;;;;;;0.10;99.90;;;;;;5109177;28;20002;-77
2021/11/30 02:32:57;;;;;;;;;;;0.00;99.90;;;;;;5110401;28;19904;-79
2021/11/30 02:35:22;;;;;;;;;;;-0.10;99.90;;;;;;5111889;28;19903;-78
2021/11/30 02:37:57;;;;;;;;;;;-0.10;99.90;;;;;;5126671;27;19931;-78
2021/11/30 02:40:23;;;;;;;;;;;-0.10;99.90;;;;;;5132241;27;19960;-77
2021/11/30 02:42:49;;;;;;;;;;;-0.20;99.90;;;;;;5131659;27;19907;-77
2021/11/30 02:45:14;;;;;;;;;;;-0.20;99.90;;;;;;5130483;27;19918;-78
2021/11/30 02:47:40;;;;;;;;;;;-0.30;99.90;;;;;;5138076;27;19952;-79
2021/11/30 02:50:06;;;;;;;;;;;-0.20;99.90;;;;;;5131633;27;20279;-78
2021/11/30 02:52:31;;;;;;;;;;;-0.20;99.90;;;;;;5130680;27;19907;-78
2021/11/30 02:54:57;;;;;;;;;;;0.00;99.90;;;;;;5131104;27;19914;-77
2021/11/30 02:57:23;;;;;;;;;;;0.20;99.90;;;;;;5129929;27;19991;-78
2021/11/30 02:59:49;;;;;;;;;;;0.30;99.90;;;;;;5128082;28;19914;-77
2021/11/30 03:02:16;;;;;;;;;;;0.30;99.90;;;;;;5129289;27;19960;-79
2021/11/30 03:04:43;;;;;;;;;;;0.40;99.90;;;;;;5130419;27;20422;-78
2021/11/30 03:07:12;;;;;;;;;;;0.60;99.90;;;;;;5129189;27;19915;-78
2021/11/30 03:09:38;;;;;;;;;;;0.50;99.90;;;;;;5130938;27;19904;-77
2021/11/30 03:12:04;;;;;;;;;;;0.50;99.90;;;;;;5129992;27;20290;-77
2021/11/30 03:14:30;;;;;;;;;;;0.50;99.90;;;;;;5130637;27;20034;-77
2021/11/30 03:16:57;;;;;;;;;;;0.40;99.90;;;;;;5130178;27;20128;-77
2021/11/30 03:19:22;;;;;;;;;;;0.40;99.90;;;;;;5128524;28;19947;-77
2021/11/30 03:21:48;;;;;;;;;;;0.30;99.90;;;;;;5129952;27;19981;-77
2021/11/30 03:24:14;;;;;;;;;;;0.20;99.90;;;;;;5129035;28;19904;-78
2021/11/30 03:26:39;;;;;;;;;;;0.10;99.90;;;;;;5130213;27;19966;-78
2021/11/30 03:29:05;;;;;;;;;;;0.00;99.90;;;;;;5129783;28;19947;-77
2021/11/30 03:34:07;;;;;;;;;;;-0.10;99.90;;;;;;5130755;27;19908;-77
2021/11/30 03:36:34;;;;;;;;;;;-0.20;99.90;;;;;;5131239;27;20006;-77
2021/11/30 03:39:00;;;;;;;;;;;-0.20;99.90;;;;;;5129647;28;19910;-77
2021/11/30 03:41:28;;;;;;;;;;;-0.30;99.90;;;;;;5129407;28;20534;-78
2021/11/30 03:43:53;;;;;;;;;;;-0.40;99.90;;;;;;5129194;27;19904;-77
2021/11/30 03:46:19;;;;;;;;;;;-0.50;99.90;;;;;;5132437;27;19916;-77
2021/11/30 03:48:45;;;;;;;;;;;-0.60;99.90;;;;;;5135406;27;19904;-77
2021/11/30 03:51:10;;;;;;;;;;;-0.70;99.90;;;;;;5134201;27;19914;-78
2021/11/30 03:53:36;;;;;;;;;;;-0.70;99.90;;;;;;5133638;27;19908;-77
2021/11/30 03:56:01;;;;;;;;;;;-0.80;99.90;;;;;;5135721;27;19907;-77
2021/11/30 03:58:27;;;;;;;;;;;-0.80;99.90;;;;;;5135806;27;19911;-77
2021/11/30 04:00:52;;;;;;;;;;;-0.80;99.90;;;;;;5134990;27;19903;-77
2021/11/30 04:03:18;;;;;;;;;;;-0.80;99.90;;;;;;5134003;27;19904;-77
2021/11/30 04:05:44;;;;;;;;;;;-0.80;99.90;;;;;;5134587;27;19907;-77
2021/11/30 04:08:09;;;;;;;;;;;-0.90;99.90;;;;;;5133591;27;19918;-77
2021/11/30 04:10:35;;;;;;;;;;;-1.00;99.90;;;;;;5135816;27;19912;-79
2021/11/30 04:13:01;;;;;;;;;;;-1.00;99.90;;;;;;5133583;27;19904;-78
2021/11/30 04:15:27;;;;;;;;;;;-1.00;99.90;;;;;;5138964;27;20374;-78
2021/11/30 04:17:52;;;;;;;;;;;-1.10;99.90;;;;;;5137095;27;19907;-77
2021/11/30 04:20:19;;;;;;;;;;;-1.10;99.90;;;;;;5113056;27;20414;-76
2021/11/30 04:22:44;;;;;;;;;;;-1.10;99.90;;;;;;5112820;28;19904;-78
2021/11/30 04:25:11;;;;;;;;;;;-1.10;99.90;;;;;;5110710;28;19904;-78
2021/11/30 04:27:36;;;;;;;;;;;-1.10;99.90;;;;;;5110922;28;20312;-77
2021/11/30 04:30:03;;;;;;;;;;;-1.10;99.90;;;;;;5111159;28;19908;-78
2021/11/30 04:32:28;;;;;;;;;;;-1.20;99.90;;;;;;5112359;28;19991;-77
2021/11/30 04:34:54;;;;;;;;;;;-1.10;99.90;;;;;;5111240;28;20343;-77
2021/11/30 04:37:19;;;;;;;;;;;-1.10;99.90;;;;;;5119500;27;19914;-77
2021/11/30 04:39:45;;;;;;;;;;;-1.00;99.90;;;;;;5132196;27;20408;-77
2021/11/30 04:42:10;;;;;;;;;;;-1.10;99.90;;;;;;5132122;27;19998;-77
2021/11/30 04:44:38;;;;;;;;;;;-1.10;99.90;;;;;;5131966;27;19942;-77
2021/11/30 04:47:10;;;;;;;;;;;-1.10;99.90;;;;;;5133307;27;20381;-77
2021/11/30 04:52:06;;;;;;;;;;;-1.10;99.90;;;;;;5133099;27;19926;-77
2021/11/30 04:54:31;;;;;;;;;;;-1.20;99.90;;;;;;5131648;27;19903;-77
2021/11/30 04:56:57;;;;;;;;;;;-1.20;99.90;;;;;;5132682;27;20272;-77
2021/11/30 04:59:23;;;;;;;;;;;-1.20;99.90;;;;;;5131932;27;19903;-77
2021/11/30 05:01:49;;;;;;;;;;;-1.20;99.90;;;;;;5132790;27;19903;-77
2021/11/30 05:04:15;;;;;;;;;;;-1.30;99.90;;;;;;5132591;27;20339;-77
2021/11/30 05:06:41;;;;;;;;;;;-1.30;99.90;;;;;;5130147;27;20383;-77
2021/11/30 05:09:07;;;;;;;;;;;-1.20;99.90;;;;;;5130548;27;19945;-77
2021/11/30 05:11:33;;;;;;;;;;;-1.00;99.90;;;;;;5130404;27;19938;-78
2021/11/30 05:13:59;;;;;;;;;;;-0.90;99.90;;;;;;5130921;27;19907;-78
2021/11/30 05:16:24;;;;;;;;;;;-0.80;99.90;;;;;;5129998;27;20290;-77
2021/11/30 05:18:50;;;;;;;;;;;-0.70;99.90;;;;;;5132416;27;20443;-76
2021/11/30 05:21:15;;;;;;;;;;;-0.60;99.90;;;;;;5130832;27;20399;-77
2021/11/30 05:23:41;;;;;;;;;;;-0.50;99.90;;;;;;5130513;27;19903;-78
2021/11/30 05:26:08;;;;;;;;;;;-0.60;99.90;;;;;;5133308;27;19990;-77
2021/11/30 05:28:35;;;;;;;;;;;-0.40;99.90;;;;;;5132072;27;19907;-77
2021/11/30 05:31:01;;;;;;;;;;;-0.40;99.90;;;;;;5133043;27;20656;-77
2021/11/30 05:33:27;;;;;;;;;;;-0.50;99.90;;;;;;5131474;27;19952;-77
2021/11/30 05:35:52;;;;;;;;;;;-0.50;99.90;;;;;;5132876;27;19990;-77
2021/11/30 05:38:18;;;;;;;;;;;-0.40;99.90;;;;;;5131430;27;19936;-77
2021/11/30 05:40:43;;;;;;;;;;;-0.40;99.90;;;;;;5132021;27;20532;-77
2021/11/30 05:43:09;;;;;;;;;;;-0.40;99.90;;;;;;5134785;27;19934;-79
2021/11/30 05:45:35;;;;;;;;;;;-0.40;99.90;;;;;;5137476;27;19916;-77
2021/11/30 05:48:00;;;;;;;;;;;-0.40;99.90;;;;;;5129684;27;19919;-77
2021/11/30 05:50:26;;;;;;;;;;;-0.30;99.90;;;;;;5129348;27;19937;-77
2021/11/30 05:52:52;;;;;;;;;;;-0.30;99.90;;;;;;5130099;27;20582;-77
2021/11/30 05:55:17;;;;;;;;;;;-0.40;99.90;;;;;;5128969;27;19910;-77
2021/11/30 05:57:43;;;;;;;;;;;-0.40;99.90;;;;;;5129127;27;19907;-77
2021/11/30 06:00:10;;;;;;;;;;;-0.40;99.90;;;;;;5130904;27;19911;-77
2021/11/30 06:02:54;;;;;;;;;;;-0.40;99.90;;;;;;5129957;27;19949;-78
2021/11/30 06:05:19;;;;;;;;;;;-0.50;99.90;;;;;;5131109;27;19907;-77
2021/11/30 06:07:45;;;;;;;;;;;-0.50;99.90;;;;;;5128669;27;20038;-77
2021/11/30 06:10:11;;;;;;;;;;;-0.50;99.90;;;;;;5129855;27;20363;-77
2021/11/30 06:12:36;;;;;;;;;;;-0.50;99.90;;;;;;5129836;27;19903;-77
2021/11/30 06:15:02;;;;;;;;;;;-0.50;99.90;;;;;;5129212;27;19950;-77
2021/11/30 06:17:27;;;;;;;;;;;-0.50;99.90;;;;;;5131305;27;20373;-77
2021/11/30 06:19:53;;;;;;;;;;;-0.40;99.90;;;;;;5129694;27;20382;-78
2021/11/30 06:22:18;;;;;;;;;;;-0.50;99.90;;;;;;5131930;27;19907;-77
2021/11/30 06:24:44;;;;;;;;;;;-0.50;99.90;;;;;;5131216;27;19907;-77
2021/11/30 06:27:09;;;;;;;;;;;-0.50;99.90;;;;;;5129715;27;19974;-78
2021/11/30 06:29:35;;;;;;;;;;;-0.50;99.90;;;;;;5131019;27;19919;-77
2021/11/30 06:32:00;;;;;;;;;;;-0.60;99.90;;;;;;5130337;27;19914;-77
2021/11/30 06:34:26;;;;;;;;;;;-0.50;99.90;;;;;;5151765;27;19907;-77
2021/11/30 06:36:51;;;;;;;;;;;-0.50;99.90;;;;;;5150344;27;19929;-77
2021/11/30 06:39:17;;;;;;;;;;;-0.50;99.90;;;;;;5150320;27;19942;-77
2021/11/30 06:41:43;;;;;;;;;;;-0.40;99.90;;;;;;5150931;27;19907;-77
2021/11/30 06:44:08;;;;;;;;;;;-0.20;99.90;;;;;;5153306;27;19903;-77
2021/11/30 06:46:34;;;;;;;;;;;-0.10;99.90;;;;;;5147528;27;19922;-77
2021/11/30 06:48:59;;;;;;;;;;;-0.10;99.90;;;;;;5129972;27;19907;-78
2021/11/30 06:51:25;;;;;;;;;;;0.10;99.90;;;;;;5133563;27;20961;-78
2021/11/30 06:53:50;;;;;;;;;;;0.30;99.90;;;;;;5132414;27;19908;-77
2021/11/30 06:56:16;;;;;;;;;;;0.40;99.90;;;;;;5131874;28;19980;-78
2021/11/30 06:58:42;;;;;;;;;;;0.80;99.90;;;;;;5131327;27;20444;-79
2021/11/30 07:01:10;;;;;;;;;;;1.10;99.90;;;;;;5131923;28;19907;-78
2021/11/30 07:03:37;;;;;;;;;;;1.50;99.90;;;;;;5133901;27;20440;-78
2021/11/30 07:06:12;;;;;;;;;;;1.80;99.90;;;;;;5132763;28;20354;-77
2021/11/30 07:09:14;;;;;;;;;;;2.10;99.90;;;;;;5135637;27;19915;-77
2021/11/30 07:14:08;;;;;;;;;;;2.60;99.90;;;;;;5140081;27;19915;-78
2021/11/30 07:16:34;;;;;;;;;;;2.70;99.90;;;;;;5130762;28;19913;-78
2021/11/30 07:19:00;;;;;;;;;;;2.90;99.90;;;;;;5131729;27;19930;-77
2021/11/30 07:21:26;;;;;;;;;;;2.90;99.90;;;;;;5134420;27;19911;-76
2021/11/30 07:23:52;;;;;;;;;;;3.00;99.90;;;;;;5134402;27;19931;-77
2021/11/30 07:26:17;;;;;;;;;;;3.00;99.90;;;;;;5136800;27;20440;-78
2021/11/30 07:28:43;;;;;;;;;;;2.90;99.90;;;;;;5136608;27;19911;-78
2021/11/30 07:31:10;;;;;;;;;;;3.00;99.90;;;;;;5136588;27;19946;-76
2021/11/30 07:33:38;;;;;;;;;;;3.00;99.90;;;;;;5137146;27;19964;-77
2021/11/30 07:36:09;;;;;;;;;;;3.20;99.90;;;;;;5137053;27;19968;-77
2021/11/30 07:38:34;;;;;;;;;;;3.40;99.90;;;;;;5134055;27;19903;-77
2021/11/30 07:41:00;;;;;;;;;;;3.40;99.90;;;;;;5137504;27;19913;-78
2021/11/30 07:43:25;;;;;;;;;;;3.70;99.90;;;;;;5135994;27;19912;-77
2021/11/30 07:45:51;;;;;;;;;;;4.00;99.90;;;;;;5131347;27;20273;-77
2021/11/30 07:48:17;;;;;;;;;;;4.20;99.90;;;;;;5131526;27;20423;-77
2021/11/30 07:50:43;;;;;;;;;;;4.40;99.90;;;;;;5133078;27;19937;-78
2021/11/30 07:53:09;;;;;;;;;;;4.50;99.90;;;;;;5131373;27;20433;-78
2021/11/30 07:55:36;;;;;;;;;;;4.70;99.90;;;;;;5132255;27;19947;-77
2021/11/30 07:58:02;;;;;;;;;;;4.80;99.90;;;;;;5131665;27;19907;-77
2021/11/30 08:00:28;;;;;;;;;;;5.00;99.90;;;;;;5132331;27;19942;-77
2021/11/30 08:02:54;;;;;;;;;;;5.00;99.90;;;;;;5131571;27;19946;-78
2021/11/30 08:05:19;;;;;;;;;;;5.10;99.90;;;;;;5130826;27;20344;-77
2021/11/30 08:07:45;;;;;;;;;;;5.00;99.90;;;;;;5132663;27;20006;-77
2021/11/30 08:10:14;;;;;;;;;;;5.30;99.90;;;;;;5131743;27;19903;-78
2021/11/30 08:12:40;;;;;;;;;;;5.60;99.90;;;;;;5133172;27;19908;-78
2021/11/30 08:15:06;;;;;;;;;;;5.80;99.90;;;;;;5134180;27;19907;-77
2021/11/30 08:17:32;;;;;;;;;;;6.10;99.90;;;;;;5135587;27;20436;-77
2021/11/30 08:19:57;;;;;;;;;;;6.20;99.90;;;;;;5134559;27;19908;-77
2021/11/30 08:22:23;;;;;;;;;;;6.30;99.90;;;;;;5134873;27;19907;-77
2021/11/30 08:24:48;;;;;;;;;;;6.50;99.90;;;;;;5132917;27;19956;-77
2021/11/30 08:27:14;;;;;;;;;;;6.70;99.10;;;;;;5132454;27;19919;-77
2021/11/30 08:29:40;;;;;;;;;;;6.80;98.80;;;;;;5132833;27;19914;-77
2021/11/30 08:32:09;;;;;;;;;;;6.90;98.90;;;;;;5132550;27;20034;-77
2021/11/30 08:34:36;;;;;;;;;;;6.90;98.70;;;;;;5131903;27;19910;-77
2021/11/30 08:37:02;;;;;;;;;;;6.60;98.60;;;;;;5131810;27;19907;-78
2021/11/30 08:39:27;;;;;;;;;;;6.50;98.50;;;;;;5133331;27;20039;-78
2021/11/30 08:41:53;;;;;;;;;;;6.10;99.90;;;;;;5138214;27;19939;-78
2021/11/30 08:44:20;;;;;;;;;;;5.80;99.90;;;;;;5134555;27;19950;-77
2021/11/30 08:50:11;;;;;;;;;;;5.50;99.90;;;;;;5133932;27;19914;-78
2021/11/30 08:52:36;;;;;;;;;;;5.30;99.90;;;;;;5131781;27;19907;-77
2021/11/30 08:55:03;;;;;;;;;;;5.20;99.90;;;;;;5131002;27;19911;-78
2021/11/30 08:57:28;;;;;;;;;;;5.20;99.90;;;;;;5130593;27;19924;-77
2021/11/30 08:59:54;;;;;;;;;;;5.10;99.90;;;;;;5130832;27;20555;-77
2021/11/30 09:02:20;;;;;;;;;;;5.00;99.90;;;;;;5131777;27;20018;-78
2021/11/30 09:04:46;;;;;;;;;;;5.10;99.90;;;;;;5130594;27;19912;-77
2021/11/30 09:07:15;;;;;;;;;;;5.10;99.90;;;;;;5130659;27;19927;-77
2021/11/30 09:09:41;;;;;;;;;;;5.20;99.90;;;;;;5132436;27;19938;-77
2021/11/30 09:12:07;;;;;;;;;;;5.40;99.90;;;;;;5133431;27;19954;-78
2021/11/30 09:14:32;;;;;;;;;;;5.50;99.90;;;;;;5133938;27;19932;-78
2021/11/30 09:16:58;;;;;;;;;;;5.80;99.90;;;;;;5133853;27;19990;-77
2021/11/30 09:19:23;;;;;;;;;;;6.00;99.90;;;;;;5133131;27;20379;-77
2021/11/30 09:21:50;;;;;;;;;;;6.20;99.90;;;;;;5133459;27;19907;-78
2021/11/30 09:24:15;;;;;;;;;;;6.30;99.40;;;;;;5133329;27;19903;-80
2021/11/30 09:26:41;;;;;;;;;;;6.30;99.90;;;;;;5134100;27;20346;-77
2021/11/30 09:29:07;;;;;;;;;;;6.30;99.10;;;;;;5133602;27;19986;-77
2021/11/30 09:31:32;;;;;;;;;;;6.40;98.60;;;;;;5135755;27;19929;-77
2021/11/30 09:34:01;;;;;;;;;;;6.30;98.50;;;;;;5133953;27;19910;-78
2021/11/30 09:36:27;;;;;;;;;;;6.10;99.90;;;;;;5134174;27;19918;-78
2021/11/30 09:38:52;;;;;;;;;;;5.90;99.90;;;;;;5133503;27;19962;-78
2021/11/30 09:41:18;;;;;;;;;;;5.80;99.90;;;;;;5134103;27;20355;-77
2021/11/30 09:43:43;;;;;;;;;;;5.70;99.90;;;;;;5132702;27;20387;-78
2021/11/30 09:46:09;;;;;;;;;;;5.70;99.90;;;;;;5133404;27;19940;-78
2021/11/30 09:48:35;;;;;;;;;;;5.60;99.90;;;;;;5135053;27;20363;-78
2021/11/30 09:51:01;;;;;;;;;;;5.60;99.90;;;;;;5135021;27;20488;-78
2021/11/30 09:53:28;;;;;;;;;;;5.40;99.90;;;;;;5134777;27;19960;-77
2021/11/30 09:55:54;;;;;;;;;;;5.40;99.90;;;;;;5133340;27;19907;-78
2021/11/30 09:58:21;;;;;;;;;;;5.50;99.90;;;;;;5131515;27;19910;-78
2021/11/30 10:00:48;;;;;;;;;;;5.60;99.90;;;;;;5133164;27;19994;-77
2021/11/30 10:03:14;;;;;;;;;;;5.70;99.90;;;;;;5133331;27;20272;-78
2021/11/30 10:05:39;;;;;;;;;;;5.80;99.90;;;;;;5134216;27;19914;-78
2021/11/30 10:08:06;;;;;;;;;;;5.90;99.90;;;;;;5135616;27;19915;-78
2021/11/30 10:10:35;;;;;;;;;;;5.80;99.90;;;;;;5137589;27;19932;-77
2021/11/30 10:13:04;;;;;;;;;;;5.70;99.90;;;;;;5131702;27;19929;-77
2021/11/30 10:15:31;;;;;;;;;;;5.60;99.90;;;;;;5132793;27;19908;-77
2021/11/30 10:18:16;;;;;;;;;;;5.60;99.90;;;;;;5132319;27;19911;-78
2021/11/30 10:20:42;;;;;;;;;;;5.50;99.90;;;;;;5117041;27;20576;-77
2021/11/30 10:23:08;;;;;;;;;;;5.30;99.90;;;;;;5132817;27;19911;-78
2021/11/30 10:25:41;;;;;;;;;;;5.20;99.90;;;;;;5128446;27;19911;-77
2021/11/30 10:28:14;;;;;;;;;;;5.20;99.90;;;;;;5129489;27;19919;-77
2021/11/30 10:30:41;;;;;;;;;;;5.20;99.90;;;;;;5129441;27;19907;-78
2021/11/30 10:33:15;;;;;;;;;;;5.10;99.90;;;;;;5128395;27;19907;-77
2021/11/30 10:35:42;;;;;;;;;;;5.10;99.90;;;;;;5129087;27;20398;-77
2021/11/30 10:38:07;;;;;;;;;;;5.10;99.90;;;;;;5129473;27;19908;-78
2021/11/30 10:40:34;;;;;;;;;;;5.10;99.90;;;;;;5129638;27;19907;-77
2021/11/30 10:43:02;;;;;;;;;;;5.30;99.90;;;;;;5129541;27;20345;-77
2021/11/30 10:45:33;;;;;;;;;;;5.40;99.90;;;;;;5127946;27;20279;-77
2021/11/30 10:48:07;;;;;;;;;;;5.50;99.30;;;;;;5128330;27;19915;-78
2021/11/30 10:50:42;;;;;;;;;;;5.50;99.90;;;;;;5128417;27;19929;-78
2021/11/30 10:53:21;;;;;;;;;;;5.50;99.60;;;;;;5128366;27;19915;-77
2021/11/30 10:55:53;;;;;;;;;;;5.50;98.90;;;;;;5128372;27;19950;-78
2021/11/30 10:58:19;;;;;;;;;;;5.60;98.80;;;;;;5128531;27;19903;-78
2021/11/30 11:00:45;;;;;;;;;;;5.80;97.50;;;;;;5130326;27;19908;-77
2021/11/30 11:03:22;;;;;;;;;;;5.80;98.40;;;;;;5128370;28;19956;-78
2021/11/30 11:05:48;;;;;;;;;;;5.80;98.10;;;;;;5128613;28;20456;-77
2021/11/30 11:08:16;;;;;;;;;;;5.90;96.30;;;;;;5128477;28;19988;-77
2021/11/30 11:10:46;;;;;;;;;;;5.80;98.50;;;;;;5128803;28;19910;-78
2021/11/30 11:13:26;;;;;;;;;;;5.70;96.90;;;;;;5128239;28;19913;-76
2021/11/30 11:16:03;;;;;;;;;;;5.60;96.90;;;;;;5128797;28;20421;-77
2021/11/30 11:18:30;;;;;;;;;;;5.50;97.30;;;;;;5130025;27;19907;-77
2021/11/30 11:21:13;;;;;;;;;;;5.50;96.90;;;;;;5130438;27;20395;-77
2021/11/30 11:23:42;;;;;;;;;;;5.40;98.00;;;;;;5129125;28;19907;-77
2021/11/30 11:26:20;;;;;;;;;;;5.40;98.40;;;;;;5128089;28;20390;-77
2021/11/30 11:28:46;;;;;;;;;;;5.20;98.50;;;;;;5128653;27;19958;-78
2021/11/30 11:31:11;;;;;;;;;;;5.10;98.70;;;;;;5129891;28;20899;-77
2021/11/30 11:33:37;;;;;;;;;;;5.10;99.20;;;;;;5130258;27;19954;-78
2021/11/30 11:36:04;;;;;;;;;;;5.10;98.50;;;;;;5129740;28;19987;-78
2021/11/30 11:38:30;;;;;;;;;;;5.10;97.30;;;;;;5132051;28;19974;-77
2021/11/30 11:40:55;;;;;;;;;;;5.00;98.20;;;;;;5128762;28;20720;-77
2021/11/30 11:43:22;;;;;;;;;;;4.90;98.80;;;;;;5128445;27;19994;-77
2021/11/30 11:45:48;;;;;;;;;;;4.90;97.70;;;;;;5127339;28;20408;-78
2021/11/30 11:48:13;;;;;;;;;;;4.80;99.00;;;;;;5128689;27;20380;-77
2021/11/30 11:50:52;;;;;;;;;;;4.70;99.90;;;;;;5129367;27;19972;-77
2021/11/30 11:53:41;;;;;;;;;;;4.90;99.00;;;;;;5128368;27;19907;-77
2021/11/30 11:56:11;;;;;;;;;;;5.00;98.40;;;;;;5116497;27;19912;-77
2021/11/30 11:58:39;;;;;;;;;;;5.00;99.60;;;;;;5128428;27;20386;-78
2021/11/30 12:01:05;;;;;;;;;;;4.90;99.90;;;;;;5127213;28;19907;-78
2021/11/30 12:03:49;;;;;;;;;;;4.90;99.90;;;;;;5126582;28;19908;-77
2021/11/30 12:06:16;;;;;;;;;;;5.00;99.90;;;;;;5128384;27;20371;-77
2021/11/30 12:09:02;;;;;;;;;;;5.00;99.00;;;;;;5132556;27;19915;-77
2021/11/30 12:11:38;;;;;;;;;;;4.90;98.10;;;;;;5131751;27;19903;-77
2021/11/30 12:14:08;;;;;;;;;;;4.80;99.20;;;;;;5131641;27;20371;-79
2021/11/30 12:16:53;;;;;;;;;;;4.70;99.90;;;;;;5130491;27;20367;-77
2021/11/30 12:19:26;;;;;;;;;;;4.70;99.90;;;;;;5130720;27;19998;-77
2021/11/30 12:21:51;;;;;;;;;;;4.70;99.90;;;;;;5130573;27;20343;-78
2021/11/30 12:24:32;;;;;;;;;;;4.80;99.90;;;;;;5132603;27;19997;-78
2021/11/30 12:26:57;;;;;;;;;;;4.90;99.90;;;;;;5131116;27;19911;-77
2021/11/30 12:29:29;;;;;;;;;;;4.90;99.90;;;;;;5132176;27;19914;-78
2021/11/30 12:31:56;;;;;;;;;;;4.90;99.90;;;;;;5133180;27;19907;-76
2021/11/30 12:34:34;;;;;;;;;;;4.90;99.90;;;;;;5133472;27;19988;-76
2021/11/30 12:37:07;;;;;;;;;;;4.90;99.90;;;;;;5131731;27;19903;-77
2021/11/30 12:39:51;;;;;;;;;;;4.80;99.90;;;;;;5131926;27;19904;-77
2021/11/30 12:42:17;;;;;;;;;;;4.70;99.90;;;;;;5132934;27;19919;-77
2021/11/30 12:44:42;;;;;;;;;;;4.60;99.90;;;;;;5133368;27;19907;-77
2021/11/30 12:47:22;;;;;;;;;;;4.60;99.90;;;;;;5132735;27;19919;-77
2021/11/30 12:49:48;;;;;;;;;;;4.50;99.90;;;;;;5133031;27;19925;-77
2021/11/30 12:52:21;;;;;;;;;;;4.50;99.90;;;;;;5133314;27;19907;-77
2021/11/30 12:54:46;;;;;;;;;;;4.50;99.90;;;;;;5132689;27;20485;-78
2021/11/30 12:57:18;;;;;;;;;;;4.40;99.90;;;;;;5134691;27;19903;-78
2021/11/30 12:59:48;;;;;;;;;;;4.40;99.90;;;;;;5137898;27;19907;-78
2021/11/30 13:02:25;;;;;;;;;;;4.50;99.90;;;;;;5135195;27;19952;-76
2021/11/30 13:04:55;;;;;;;;;;;4.40;99.90;;;;;;5133849;27;19994;-77
2021/11/30 13:07:27;;;;;;;;;;;4.40;99.90;;;;;;5119966;27;19915;-77
2021/11/30 13:09:54;;;;;;;;;;;4.40;99.90;;;;;;5130628;27;19907;-77
2021/11/30 13:12:21;;;;;;;;;;;4.40;99.90;;;;;;5130710;27;19908;-77
2021/11/30 13:14:48;;;;;;;;;;;4.40;99.90;;;;;;5129450;27;19973;-77
2021/11/30 13:17:13;;;;;;;;;;;4.40;99.90;;;;;;5130791;27;19907;-76
2021/11/30 13:19:42;;;;;;;;;;;4.30;99.90;;;;;;5130248;27;19903;-77
2021/11/30 13:22:08;;;;;;;;;;;4.30;99.90;;;;;;5129578;27;19930;-76
2021/11/30 13:24:36;;;;;;;;;;;4.30;99.90;;;;;;5129022;27;19961;-78
2021/11/30 13:27:09;;;;;;;;;;;4.30;99.90;;;;;;5129970;27;20489;-77
2021/11/30 13:29:34;;;;;;;;;;;4.40;99.90;;;;;;5128802;27;20400;-77
2021/11/30 13:32:01;;;;;;;;;;;4.40;99.90;;;;;;5128825;27;20434;-77
2021/11/30 13:34:27;;;;;;;;;;;4.40;99.90;;;;;;5130049;27;20279;-77
2021/11/30 13:36:52;;;;;;;;;;;4.40;99.90;;;;;;5129531;27;20366;-77
2021/11/30 13:39:18;;;;;;;;;;;4.30;99.90;;;;;;5130100;27;20351;-78
2021/11/30 13:41:43;;;;;;;;;;;4.20;99.90;;;;;;5127722;27;19967;-77
2021/11/30 13:44:09;;;;;;;;;;;4.20;99.90;;;;;;5127983;27;19910;-77
2021/11/30 13:46:36;;;;;;;;;;;4.10;99.90;;;;;;5129300;27;19926;-77
2021/11/30 13:49:06;;;;;;;;;;;4.00;99.90;;;;;;5130121;27;20542;-76
2021/11/30 13:51:33;;;;;;;;;;;4.00;99.90;;;;;;5128254;27;19907;-77
2021/11/30 13:54:04;;;;;;;;;;;4.00;99.90;;;;;;5128061;27;20041;-77
2021/11/30 13:56:42;;;;;;;;;;;4.00;99.90;;;;;;5129443;27;19908;-77
2021/11/30 14:01:46;;;;;;;;;;;3.80;99.90;;;;;;5130558;27;19949;-77
2021/11/30 14:04:14;;;;;;;;;;;4.00;99.90;;;;;;5130623;27;19907;-77
2021/11/30 14:06:40;;;;;;;;;;;3.90;99.90;;;;;;5134623;27;19903;-77
2021/11/30 14:09:08;;;;;;;;;;;3.90;99.90;;;;;;5150138;27;19963;-77
2021/11/30 14:11:35;;;;;;;;;;;3.90;99.90;;;;;;5129173;27;19907;-77
2021/11/30 14:14:01;;;;;;;;;;;3.90;99.90;;;;;;5129216;27;19948;-77
2021/11/30 14:16:27;;;;;;;;;;;3.80;99.90;;;;;;5130847;27;19975;-77
2021/11/30 14:18:54;;;;;;;;;;;3.80;99.90;;;;;;5124855;27;20333;-77
2021/11/30 14:21:20;;;;;;;;;;;3.70;99.90;;;;;;5125294;27;19912;-76
2021/11/30 14:24:00;;;;;;;;;;;3.70;99.90;;;;;;5125690;27;19912;-77
2021/11/30 14:26:25;;;;;;;;;;;3.80;99.90;;;;;;5120972;27;20327;-76
2021/11/30 14:28:58;;;;;;;;;;;3.70;99.90;;;;;;5150829;27;19925;-76
2021/11/30 14:31:23;;;;;;;;;;;3.70;99.90;;;;;;5141473;27;19997;-77
2021/11/30 14:33:49;;;;;;;;;;;3.60;99.90;;;;;;5169973;27;19931;-76
2021/11/30 14:36:24;;;;;;;;;;;3.60;99.90;;;;;;5169828;27;19919;-77
2021/11/30 14:38:51;;;;;;;;;;;3.50;99.90;;;;;;5167509;27;19962;-77
2021/11/30 14:41:17;;;;;;;;;;;3.40;99.90;;;;;;5165515;27;19922;-76
2021/11/30 14:43:44;;;;;;;;;;;3.50;99.90;;;;;;5145768;27;19920;-77